createdAt,value
2017-06-20T00:01:17.287Z,49.90
2017-06-20T00:03:44.847Z,50.30
2017-06-20T00:06:12.613Z,50.90
2017-06-20T00:08:40.140Z,51.30
2017-06-20T00:11:07.727Z,50.60
2017-06-20T00:13:35.286Z,50.00
2017-06-20T00:16:02.847Z,49.90
2017-06-20T00:18:30.507Z,49.90
2017-06-20T00:20:58.036Z,49.90
2017-06-20T00:23:25.571Z,49.70
2017-06-20T00:25:53.898Z,49.90
2017-06-20T00:28:21.460Z,49.80
2017-06-20T00:30:49.115Z,49.50
2017-06-20T00:33:16.684Z,49.90
2017-06-20T00:35:44.243Z,50.00
2017-06-20T00:38:11.799Z,50.80
2017-06-20T00:40:39.359Z,51.10
2017-06-20T00:43:07.024Z,51.30
2017-06-20T00:45:34.576Z,51.50
2017-06-20T00:48:02.144Z,51.60
2017-06-20T00:50:29.703Z,51.80
2017-06-20T00:52:57.255Z,51.60
2017-06-20T00:55:24.790Z,51.50
2017-06-20T00:57:52.374Z,51.20
2017-06-20T01:00:20.021Z,51.00
2017-06-20T01:02:47.596Z,51.40
2017-06-20T01:05:15.129Z,51.80
2017-06-20T01:07:42.711Z,52.10
2017-06-20T01:10:10.235Z,52.40
2017-06-20T01:12:37.827Z,52.50
2017-06-20T01:15:05.360Z,52.60
2017-06-20T01:17:32.892Z,52.40
2017-06-20T01:20:01.223Z,52.10
2017-06-20T01:22:28.760Z,51.90
2017-06-20T01:24:56.291Z,51.90
2017-06-20T01:27:24.682Z,51.90
2017-06-20T01:29:52.216Z,51.90
2017-06-20T01:32:20.553Z,52.10
2017-06-20T01:34:48.111Z,52.10
2017-06-20T01:37:15.671Z,52.30
2017-06-20T01:39:43.231Z,52.80
2017-06-20T01:42:10.792Z,53.30
2017-06-20T01:44:38.352Z,53.10
2017-06-20T01:47:05.910Z,52.80
2017-06-20T01:49:33.467Z,52.60
2017-06-20T01:52:01.023Z,53.20
2017-06-20T01:54:28.673Z,53.00
2017-06-20T01:56:56.243Z,53.00
2017-06-20T01:59:23.803Z,52.90
2017-06-20T02:01:51.363Z,53.00
2017-06-20T02:04:18.893Z,52.60
2017-06-20T02:06:46.485Z,52.40
2017-06-20T02:09:14.039Z,52.60
2017-06-20T02:11:41.595Z,52.50
2017-06-20T02:14:09.131Z,52.80
2017-06-20T02:16:36.723Z,52.70
2017-06-20T02:19:04.259Z,53.70
2017-06-20T02:21:31.831Z,54.00
2017-06-20T02:23:59.398Z,53.80
2017-06-20T02:26:27.041Z,53.80
2017-06-20T02:28:54.611Z,54.50
2017-06-20T02:31:22.171Z,54.40
2017-06-20T02:33:49.708Z,55.30
2017-06-20T02:36:17.240Z,55.40
2017-06-20T02:38:45.571Z,56.20
2017-06-20T02:41:13.213Z,56.10
2017-06-20T02:43:40.793Z,56.10
2017-06-20T02:46:08.335Z,55.60
2017-06-20T02:48:35.907Z,55.10
2017-06-20T02:51:03.467Z,55.00
2017-06-20T02:53:31.023Z,55.10
2017-06-20T02:55:58.579Z,55.30
2017-06-20T02:58:26.135Z,55.50
2017-06-20T03:00:53.700Z,55.70
2017-06-20T03:03:21.227Z,56.10
2017-06-20T03:05:48.759Z,56.40
2017-06-20T03:08:17.051Z,57.90
2017-06-20T03:10:56.428Z,57.90
2017-06-20T03:13:23.955Z,57.70
2017-06-20T03:15:51.543Z,58.00
2017-06-20T03:18:19.066Z,58.30
2017-06-20T03:20:46.659Z,58.50
2017-06-20T03:23:14.224Z,58.10
2017-06-20T03:25:41.779Z,58.90
2017-06-20T03:28:09.339Z,58.30
2017-06-20T03:30:36.899Z,57.90
2017-06-20T03:33:04.436Z,57.10
2017-06-20T03:35:32.015Z,56.50
2017-06-20T03:37:59.551Z,56.40
2017-06-20T03:40:27.139Z,56.00
2017-06-20T03:42:54.690Z,56.00
2017-06-20T03:45:22.255Z,55.90
2017-06-20T03:47:49.919Z,55.60
2017-06-20T03:50:17.471Z,55.20
2017-06-20T03:52:45.027Z,55.40
2017-06-20T03:55:12.586Z,55.30
2017-06-20T03:57:40.148Z,55.60
2017-06-20T04:00:08.963Z,55.40
2017-06-20T04:02:36.499Z,55.10
2017-06-20T04:05:04.038Z,54.90
2017-06-20T04:07:31.615Z,55.00
2017-06-20T04:09:59.152Z,54.90
2017-06-20T04:12:28.664Z,54.60
2017-06-20T04:14:57.223Z,54.90
2017-06-20T04:17:25.744Z,55.50
2017-06-20T04:19:53.303Z,55.10
2017-06-20T04:22:20.863Z,54.70
2017-06-20T04:24:48.396Z,54.40
2017-06-20T04:27:15.935Z,54.40
2017-06-20T04:29:43.523Z,54.30
2017-06-20T04:32:11.091Z,54.60
2017-06-20T04:34:38.651Z,54.80
2017-06-20T04:37:06.211Z,55.00
2017-06-20T04:39:33.776Z,55.70
2017-06-20T04:42:01.314Z,56.60
2017-06-20T04:44:28.887Z,56.20
2017-06-20T04:46:56.447Z,56.00
2017-06-20T04:49:24.007Z,55.30
2017-06-20T04:51:51.566Z,55.40
2017-06-20T04:54:19.123Z,55.10
2017-06-20T04:56:46.679Z,55.70
2017-06-20T04:59:14.239Z,55.60
2017-06-20T05:01:41.801Z,56.00
2017-06-20T05:04:09.359Z,55.80
2017-06-20T05:06:37.027Z,55.20
2017-06-20T05:09:04.583Z,55.20
2017-06-20T05:11:32.143Z,54.80
2017-06-20T05:14:00.108Z,54.30
2017-06-20T05:16:27.663Z,54.60
2017-06-20T05:18:55.186Z,54.00
2017-06-20T05:21:22.787Z,53.60
2017-06-20T05:23:50.343Z,53.40
2017-06-20T05:26:17.877Z,53.20
2017-06-20T05:28:45.457Z,53.10
2017-06-20T05:31:13.018Z,53.10
2017-06-20T05:33:40.580Z,53.40
2017-06-20T05:36:08.138Z,52.90
2017-06-20T05:38:35.668Z,52.70
2017-06-20T05:41:03.195Z,52.70
2017-06-20T05:43:31.532Z,52.60
2017-06-20T05:45:59.087Z,51.90
2017-06-20T05:48:26.647Z,51.90
2017-06-20T05:50:54.202Z,51.50
2017-06-20T05:53:21.745Z,52.30
2017-06-20T05:55:49.335Z,52.30
2017-06-20T05:58:16.858Z,51.90
2017-06-20T06:00:44.396Z,52.70
2017-06-20T06:03:11.918Z,52.00
2017-06-20T06:05:39.447Z,51.90
2017-06-20T06:08:07.019Z,51.50
2017-06-20T06:10:34.575Z,51.00
2017-06-20T06:13:02.131Z,50.70
2017-06-20T06:15:29.781Z,50.80
2017-06-20T06:17:57.351Z,50.50
2017-06-20T06:20:24.915Z,50.10
2017-06-20T06:22:52.471Z,50.10
2017-06-20T06:25:20.007Z,49.90
2017-06-20T06:27:47.586Z,49.60
2017-06-20T06:30:15.147Z,48.80
2017-06-20T06:32:42.688Z,48.60
2017-06-20T06:35:10.216Z,47.70
2017-06-20T06:37:38.543Z,48.70
2017-06-20T06:40:06.108Z,48.60
2017-06-20T06:42:33.668Z,47.80
2017-06-20T06:45:01.221Z,47.70
2017-06-20T06:47:28.780Z,48.00
2017-06-20T06:49:56.335Z,47.80
2017-06-20T06:52:23.895Z,47.10
2017-06-20T06:54:51.451Z,46.80
2017-06-20T06:57:19.016Z,47.00
2017-06-20T06:59:46.571Z,46.30
2017-06-20T07:02:14.103Z,47.00
2017-06-20T07:04:41.647Z,46.70
2017-06-20T07:07:09.247Z,46.10
2017-06-20T07:09:36.807Z,46.00
2017-06-20T07:12:04.363Z,45.90
2017-06-20T07:14:31.923Z,45.30
2017-06-20T07:16:59.471Z,45.50
2017-06-20T07:19:27.046Z,44.20
2017-06-20T07:21:54.580Z,44.50
2017-06-20T07:24:22.159Z,44.80
2017-06-20T07:26:49.720Z,44.60
2017-06-20T07:29:17.379Z,44.00
2017-06-20T07:31:44.966Z,44.00
2017-06-20T07:34:12.600Z,43.50
2017-06-20T07:36:40.168Z,43.00
2017-06-20T07:39:07.831Z,43.40
2017-06-20T07:41:35.483Z,43.10
2017-06-20T07:44:03.045Z,42.90
2017-06-20T07:46:30.599Z,42.70
2017-06-20T07:48:58.158Z,42.50
2017-06-20T07:51:25.743Z,41.90
2017-06-20T07:53:53.378Z,42.10
2017-06-20T07:56:20.940Z,42.20
2017-06-20T07:58:48.471Z,41.50
2017-06-20T08:01:16.060Z,40.90
2017-06-20T08:03:43.615Z,41.20
2017-06-20T08:06:11.205Z,40.60
2017-06-20T08:08:38.834Z,40.60
2017-06-20T08:11:06.394Z,40.50
2017-06-20T08:13:33.955Z,40.00
2017-06-20T08:16:01.511Z,40.20
2017-06-20T08:18:29.075Z,40.50
2017-06-20T08:21:02.547Z,39.60
2017-06-20T08:23:30.071Z,39.30
2017-06-20T08:25:58.403Z,39.40
2017-06-20T08:28:25.931Z,39.40
2017-06-20T08:30:53.524Z,38.30
2017-06-20T08:33:21.080Z,37.50
2017-06-20T08:35:48.625Z,37.40
2017-06-20T08:38:16.201Z,37.30
2017-06-20T08:40:43.751Z,37.30
2017-06-20T08:43:11.328Z,36.80
2017-06-20T08:45:38.862Z,36.10
2017-06-20T08:48:06.444Z,36.40
2017-06-20T08:50:33.967Z,35.10
2017-06-20T08:53:01.560Z,35.50
2017-06-20T08:55:29.093Z,35.40
2017-06-20T08:57:56.674Z,36.10
2017-06-20T09:00:24.205Z,34.90
2017-06-20T09:02:51.740Z,34.60
2017-06-20T09:05:20.063Z,34.80
2017-06-20T09:07:47.625Z,34.70
2017-06-20T09:10:15.184Z,35.10
2017-06-20T09:12:42.743Z,35.20
2017-06-20T09:15:10.299Z,33.80
2017-06-20T09:17:37.864Z,34.00
2017-06-20T09:20:05.416Z,33.70
2017-06-20T09:22:32.955Z,33.50
2017-06-20T09:25:00.483Z,33.50
2017-06-20T09:27:28.815Z,33.40
2017-06-20T09:29:56.366Z,33.40
2017-06-20T09:32:23.927Z,33.20
2017-06-20T09:34:51.487Z,33.60
2017-06-20T09:37:19.052Z,33.60
2017-06-20T09:39:46.580Z,33.50
2017-06-20T09:42:14.164Z,33.00
2017-06-20T09:44:41.699Z,32.50
2017-06-20T09:47:09.283Z,32.30
2017-06-20T09:49:36.839Z,32.40
2017-06-20T09:52:04.376Z,30.40
2017-06-20T09:54:31.911Z,30.90
2017-06-20T09:57:00.246Z,30.80
2017-06-20T09:59:27.799Z,30.70
2017-06-20T10:01:55.351Z,30.70
2017-06-20T10:04:22.887Z,30.90
2017-06-20T10:06:50.471Z,31.70
2017-06-20T10:09:18.030Z,30.80
2017-06-20T10:11:45.587Z,30.40
2017-06-20T10:14:13.120Z,29.50
2017-06-20T10:16:40.707Z,29.60
2017-06-20T10:19:08.272Z,29.70
2017-06-20T10:21:35.799Z,30.00
2017-06-20T10:24:03.387Z,30.00
2017-06-20T10:26:30.944Z,30.10
2017-06-20T10:28:58.507Z,29.30
2017-06-20T10:31:26.059Z,29.80
2017-06-20T10:33:53.619Z,30.00
2017-06-20T10:36:21.179Z,29.50
2017-06-20T10:38:48.741Z,29.40
2017-06-20T10:41:16.303Z,29.30
2017-06-20T10:43:43.859Z,29.60
2017-06-20T10:46:11.421Z,29.50
2017-06-20T10:48:38.951Z,29.80
2017-06-20T10:51:06.535Z,28.90
2017-06-20T10:53:34.100Z,28.70
2017-06-20T10:56:01.633Z,28.60
2017-06-20T10:58:29.212Z,28.30
2017-06-20T11:00:56.747Z,28.30
2017-06-20T11:03:24.328Z,27.30
2017-06-20T11:05:51.892Z,27.70
2017-06-20T11:08:19.447Z,27.60
2017-06-20T11:10:47.007Z,27.90
2017-06-20T11:13:14.563Z,28.00
2017-06-20T11:15:42.128Z,27.70
2017-06-20T11:18:09.688Z,28.10
2017-06-20T11:20:37.248Z,27.50
2017-06-20T11:23:04.800Z,27.50
2017-06-20T11:25:32.331Z,28.00
2017-06-20T11:27:59.924Z,27.80
2017-06-20T11:30:27.479Z,28.50
2017-06-20T11:32:55.040Z,28.50
2017-06-20T11:35:22.595Z,27.80
2017-06-20T11:37:50.163Z,27.30
2017-06-20T11:40:17.720Z,27.40
2017-06-20T11:42:45.271Z,26.90
2017-06-20T11:45:12.835Z,27.30
2017-06-20T11:47:40.395Z,27.10
2017-06-20T11:50:07.949Z,27.00
2017-06-20T11:52:35.517Z,26.60
2017-06-20T11:55:03.067Z,27.30
2017-06-20T11:57:30.653Z,25.90
2017-06-20T11:59:58.187Z,25.90
2017-06-20T12:02:25.835Z,26.70
2017-06-20T12:04:53.408Z,26.30
2017-06-20T12:07:20.969Z,25.80
2017-06-20T12:09:48.496Z,25.10
2017-06-20T12:12:16.092Z,25.40
2017-06-20T12:14:43.739Z,25.40
2017-06-20T12:17:11.310Z,25.60
2017-06-20T12:19:38.864Z,25.70
2017-06-20T12:22:06.423Z,26.70
2017-06-20T12:24:33.979Z,25.30
2017-06-20T12:27:01.544Z,25.90
2017-06-20T12:29:29.204Z,25.00
2017-06-20T12:31:56.868Z,25.60
2017-06-20T12:34:24.527Z,26.10
2017-06-20T12:36:52.172Z,26.50
2017-06-20T12:39:19.728Z,24.90
2017-06-20T12:41:47.310Z,25.20
2017-06-20T12:44:14.975Z,25.50
2017-06-20T12:46:42.628Z,25.00
2017-06-20T12:49:10.188Z,24.40
2017-06-20T12:51:37.748Z,24.50
2017-06-20T12:54:05.303Z,25.20
2017-06-20T12:56:32.868Z,24.60
2017-06-20T12:59:00.408Z,24.50
2017-06-20T13:01:27.979Z,25.40
2017-06-20T13:03:55.543Z,25.40
2017-06-20T13:06:23.099Z,25.40
2017-06-20T13:08:50.760Z,25.10
2017-06-20T13:11:18.295Z,24.50
2017-06-20T13:13:45.880Z,25.40
2017-06-20T13:16:13.540Z,25.30
2017-06-20T13:18:41.071Z,25.60
2017-06-20T13:21:08.659Z,25.80
2017-06-20T13:23:36.215Z,25.10
2017-06-20T13:26:03.751Z,25.80
2017-06-20T13:28:31.335Z,25.50
2017-06-20T13:30:58.895Z,25.10
2017-06-20T13:33:26.461Z,24.50
2017-06-20T13:35:54.012Z,24.40
2017-06-20T13:38:21.576Z,24.80
2017-06-20T13:40:49.131Z,25.10
2017-06-20T13:43:16.695Z,24.80
2017-06-20T13:45:44.240Z,25.40
2017-06-20T13:48:11.812Z,25.40
2017-06-20T13:50:39.366Z,24.70
2017-06-20T13:53:07.016Z,25.30
2017-06-20T13:55:34.556Z,24.80
2017-06-20T13:58:02.154Z,25.50
2017-06-20T14:00:29.715Z,24.10
2017-06-20T14:02:57.717Z,24.30
2017-06-20T14:05:26.031Z,25.50
2017-06-20T14:07:53.635Z,25.50
2017-06-20T14:10:21.279Z,25.90
2017-06-20T14:12:48.836Z,26.20
2017-06-20T14:15:16.392Z,26.60
2017-06-20T14:17:44.055Z,26.20
2017-06-20T14:20:11.721Z,26.30
2017-06-20T14:22:39.375Z,26.70
2017-06-20T14:25:06.935Z,26.90
2017-06-20T14:27:34.471Z,27.30
2017-06-20T14:30:02.059Z,27.50
2017-06-20T14:32:29.610Z,27.40
2017-06-20T14:34:57.175Z,27.40
2017-06-20T14:37:24.731Z,27.40
2017-06-20T14:39:52.287Z,27.30
2017-06-20T14:42:19.832Z,27.00
2017-06-20T14:44:48.320Z,26.80
2017-06-20T14:47:22.168Z,27.10
2017-06-20T14:49:49.707Z,27.00
2017-06-20T14:52:17.239Z,27.40
2017-06-20T14:54:44.902Z,27.30
2017-06-20T14:57:12.460Z,27.00
2017-06-20T14:59:40.032Z,27.10
2017-06-20T15:02:07.570Z,27.40
2017-06-20T15:04:35.215Z,27.30
2017-06-20T15:07:02.816Z,27.40
2017-06-20T15:09:30.358Z,27.30
2017-06-20T15:11:57.899Z,27.20
2017-06-20T15:14:25.459Z,27.20
2017-06-20T15:16:53.052Z,27.10
2017-06-20T15:19:20.902Z,26.90
2017-06-20T15:21:48.475Z,26.70
2017-06-20T15:24:16.034Z,26.90
2017-06-20T15:26:43.763Z,26.80
2017-06-20T15:29:11.475Z,26.90
2017-06-20T15:31:39.119Z,26.70
2017-06-20T15:34:06.688Z,26.60
2017-06-20T15:36:34.226Z,27.40
2017-06-20T15:39:01.769Z,26.80
2017-06-20T15:41:29.306Z,27.00
2017-06-20T15:43:57.738Z,27.10
2017-06-20T15:46:25.301Z,27.00
2017-06-20T15:48:52.835Z,27.20
2017-06-20T15:51:20.410Z,26.90
2017-06-20T15:53:47.975Z,26.60
2017-06-20T15:56:15.532Z,26.70
2017-06-20T15:58:43.195Z,26.70
2017-06-20T16:01:10.852Z,26.90
2017-06-20T16:03:38.418Z,26.50
2017-06-20T16:06:05.978Z,26.70
2017-06-20T16:08:33.636Z,27.10
2017-06-20T16:11:01.197Z,26.80
2017-06-20T16:13:28.860Z,26.80
2017-06-20T16:15:56.404Z,27.00
2017-06-20T16:18:23.976Z,27.20
2017-06-20T16:20:51.635Z,27.00
2017-06-20T16:23:19.296Z,27.20
2017-06-20T16:25:47.775Z,27.30
2017-06-20T16:28:15.335Z,27.20
2017-06-20T16:30:42.887Z,27.40
2017-06-20T16:33:10.457Z,27.50
2017-06-20T16:35:38.004Z,27.90
2017-06-20T16:38:05.543Z,27.80
2017-06-20T16:40:33.324Z,28.00
2017-06-20T16:43:00.904Z,28.30
2017-06-20T16:45:28.555Z,28.30
2017-06-20T16:47:56.410Z,28.20
2017-06-20T16:50:24.083Z,28.10
2017-06-20T16:52:51.643Z,28.30
2017-06-20T16:55:19.204Z,28.50
2017-06-20T16:57:46.765Z,28.70
2017-06-20T17:00:14.307Z,28.80
2017-06-20T17:02:41.883Z,28.90
2017-06-20T17:05:09.443Z,29.20
2017-06-20T17:07:37.000Z,29.10
2017-06-20T17:10:04.660Z,29.20
2017-06-20T17:12:32.219Z,29.20
2017-06-20T17:14:59.776Z,29.20
2017-06-20T17:17:27.320Z,29.30
2017-06-20T17:19:56.035Z,29.50
2017-06-20T17:22:25.965Z,29.60
2017-06-20T17:24:54.219Z,29.70
2017-06-20T17:27:21.764Z,30.00
2017-06-20T17:29:49.327Z,30.70
2017-06-20T17:32:16.888Z,30.30
2017-06-20T17:34:44.450Z,30.30
2017-06-20T17:37:12.828Z,30.50
2017-06-20T17:39:40.386Z,30.60
2017-06-20T17:42:07.948Z,30.70
2017-06-20T17:44:35.504Z,31.00
2017-06-20T17:47:03.163Z,31.70
2017-06-20T17:49:30.704Z,31.70
2017-06-20T17:51:58.284Z,32.00
2017-06-20T17:54:25.839Z,32.70
2017-06-20T17:56:54.075Z,34.60
2017-06-20T17:59:21.947Z,35.70
2017-06-20T18:01:49.538Z,36.60
2017-06-20T18:04:17.099Z,36.60
2017-06-20T18:06:45.075Z,37.10
2017-06-20T18:09:12.622Z,38.00
2017-06-20T18:11:40.174Z,38.30
2017-06-20T18:14:08.812Z,38.50
2017-06-20T18:16:37.152Z,40.00
2017-06-20T18:19:04.798Z,39.30
2017-06-20T18:21:32.375Z,39.70
2017-06-20T18:24:00.061Z,39.70
2017-06-20T18:26:27.741Z,39.70
2017-06-20T18:28:56.162Z,40.20
2017-06-20T18:31:24.745Z,40.50
2017-06-20T18:33:52.406Z,40.40
2017-06-20T18:36:20.082Z,40.30
2017-06-20T18:38:47.631Z,40.50
2017-06-20T18:41:15.179Z,40.80
2017-06-20T18:43:42.882Z,40.90
2017-06-20T18:46:10.632Z,41.20
2017-06-20T18:48:38.631Z,41.30
2017-06-20T18:51:06.286Z,41.30
2017-06-20T18:53:33.915Z,41.50
2017-06-20T18:56:01.490Z,41.50
2017-06-20T18:58:29.139Z,42.20
2017-06-20T19:00:56.796Z,42.00
2017-06-20T19:03:24.354Z,42.10
2017-06-20T19:05:51.912Z,42.30
2017-06-20T19:08:19.462Z,42.30
2017-06-20T19:10:47.018Z,42.20
2017-06-20T19:13:14.591Z,42.30
2017-06-20T19:15:42.134Z,42.30
2017-06-20T19:18:10.644Z,43.20
2017-06-20T19:20:38.293Z,42.40
2017-06-20T19:23:05.840Z,42.90
2017-06-20T19:25:33.411Z,42.80
2017-06-20T19:28:01.071Z,43.10
2017-06-20T19:30:28.736Z,43.10
2017-06-20T19:32:56.292Z,43.10
2017-06-20T19:35:23.851Z,43.70
2017-06-20T19:37:51.411Z,43.30
2017-06-20T19:40:18.939Z,43.10
2017-06-20T19:42:46.531Z,43.00
2017-06-20T19:45:14.190Z,43.10
2017-06-20T19:47:41.753Z,42.90
2017-06-20T19:50:09.311Z,42.90
2017-06-20T19:52:36.853Z,42.80
2017-06-20T19:55:04.531Z,42.70
2017-06-20T19:57:32.087Z,43.10
2017-06-20T19:59:59.650Z,43.20
2017-06-20T20:02:27.307Z,43.00
2017-06-20T20:04:54.971Z,42.90
2017-06-20T20:07:22.828Z,43.10
2017-06-20T20:09:51.220Z,43.20
2017-06-20T20:12:18.866Z,43.20
2017-06-20T20:14:46.539Z,43.60
2017-06-20T20:17:14.096Z,43.00
2017-06-20T20:19:41.660Z,43.00
2017-06-20T20:22:09.215Z,43.00
2017-06-20T20:24:36.831Z,43.50
2017-06-20T20:27:05.220Z,43.30
2017-06-20T20:29:32.759Z,43.20
2017-06-20T20:32:08.553Z,42.60
2017-06-20T20:34:38.380Z,43.10
2017-06-20T20:37:06.180Z,43.10
2017-06-20T20:39:34.515Z,42.20
2017-06-20T20:42:02.147Z,42.20
2017-06-20T20:44:30.048Z,42.40
2017-06-20T20:46:59.134Z,43.10
2017-06-20T20:49:26.836Z,42.90
2017-06-20T20:51:54.619Z,43.10
2017-06-20T20:54:23.056Z,42.40
2017-06-20T20:56:50.728Z,42.30
2017-06-20T20:59:18.568Z,42.50
2017-06-20T21:01:47.313Z,42.50
2017-06-20T21:04:16.047Z,43.00
2017-06-20T21:06:43.807Z,42.90
2017-06-20T21:09:11.575Z,42.90
2017-06-20T21:11:39.431Z,43.20
2017-06-20T21:14:07.103Z,43.40
2017-06-20T21:16:34.671Z,43.00
2017-06-20T21:19:03.389Z,43.00
2017-06-20T21:21:31.729Z,43.40
2017-06-20T21:23:59.376Z,43.40
2017-06-20T21:26:26.947Z,43.30
2017-06-20T21:28:54.608Z,43.70
2017-06-20T21:31:22.280Z,43.70
2017-06-20T21:33:49.923Z,43.60
2017-06-20T21:36:17.467Z,43.50
2017-06-20T21:38:45.035Z,43.50
2017-06-20T21:41:12.719Z,43.40
2017-06-20T21:43:40.380Z,43.90
2017-06-20T21:46:08.027Z,44.10
2017-06-20T21:48:35.695Z,43.90
2017-06-20T21:51:03.244Z,43.90
2017-06-20T21:53:30.915Z,44.20
2017-06-20T21:55:58.446Z,43.80
2017-06-20T21:58:26.031Z,44.30
2017-06-20T22:00:53.695Z,44.30
2017-06-20T22:03:21.247Z,44.60
2017-06-20T22:05:48.811Z,44.50
2017-06-20T22:08:16.371Z,44.70
2017-06-20T22:10:43.931Z,44.80
2017-06-20T22:13:11.487Z,45.20
2017-06-20T22:15:39.150Z,45.20
2017-06-20T22:18:06.711Z,45.40
2017-06-20T22:20:34.243Z,45.40
2017-06-20T22:23:01.827Z,45.50
2017-06-20T22:25:29.496Z,45.70
2017-06-20T22:27:57.151Z,45.80
2017-06-20T22:30:24.707Z,45.90
2017-06-20T22:32:52.275Z,45.70
2017-06-20T22:35:19.939Z,46.00
2017-06-20T22:37:47.475Z,46.00
2017-06-20T22:40:15.047Z,46.60
2017-06-20T22:42:42.600Z,46.20
2017-06-20T22:45:10.154Z,46.30
2017-06-20T22:47:37.727Z,46.30
2017-06-20T22:50:05.291Z,46.60
2017-06-20T22:52:32.939Z,46.70
2017-06-20T22:55:00.607Z,46.70
2017-06-20T22:57:28.267Z,47.00
2017-06-20T22:59:55.917Z,47.00
2017-06-20T23:02:23.479Z,47.10
2017-06-20T23:04:51.139Z,47.50
2017-06-20T23:07:18.675Z,47.40
2017-06-20T23:09:46.267Z,47.50
2017-06-20T23:12:13.911Z,47.20
2017-06-20T23:14:41.447Z,47.60
2017-06-20T23:17:09.051Z,47.90
2017-06-20T23:19:36.612Z,48.10
2017-06-20T23:22:04.268Z,48.10
2017-06-20T23:24:31.826Z,48.20
2017-06-20T23:26:59.368Z,48.40
2017-06-20T23:29:27.034Z,48.40
2017-06-20T23:31:54.602Z,48.30
2017-06-20T23:34:22.162Z,48.70
2017-06-20T23:36:49.828Z,48.90
2017-06-20T23:39:17.387Z,49.30
2017-06-20T23:41:44.937Z,49.30
2017-06-20T23:44:12.502Z,49.40
2017-06-20T23:46:40.164Z,49.20
2017-06-20T23:49:07.827Z,49.60
2017-06-20T23:51:35.382Z,49.50
2017-06-20T23:54:02.944Z,49.40
2017-06-20T23:56:30.599Z,49.10
2017-06-20T23:58:58.268Z,49.10
